Time;durP1;ratioP1;P1;durP2;ratioP2;P2;SDS_P1;SDS_P2;PMS_P1;PMS_P2;Temp;Humidity;BMP_temperature;BMP_pressure;BME280_temperature;BME280_humidity;BME280_pressure;Samples;Min_cycle;Max_cycle;Signal;HPM_P1;HPM_P2
2022/11/25 00:01:03;;;;;;;15.05;5.75;;;;;;;;;;4948393;28;20078;-46
2022/11/25 00:03:28;;;;;;;14.55;5.78;;;;;;;;;;4947773;29;20055;-43
2022/11/25 00:05:53;;;;;;;15.63;5.68;;;;;;;;;;4945711;29;20050;-45
2022/11/25 00:08:19;;;;;;;16.77;5.28;;;;;;;;;;4951345;29;20034;-43
2022/11/25 00:10:44;;;;;;;16.50;5.68;;;;;;;;;;4952441;28;20452;-44
2022/11/25 00:13:09;;;;;;;13.10;5.50;;;;;;;;;;4953601;29;20104;-47
2022/11/25 00:15:35;;;;;;;15.40;5.82;;;;;;;;;;4952377;28;20039;-44
2022/11/25 00:18:00;;;;;;;16.70;6.28;;;;;;;;;;4952432;29;20027;-48
2022/11/25 00:20:25;;;;;;;16.25;6.10;;;;;;;;;;4949032;28;20427;-44
2022/11/25 00:22:51;;;;;;;10.85;4.97;;;;;;;;;;4953037;29;20078;-46
2022/11/25 00:25:16;;;;;;;20.02;5.30;;;;;;;;;;4951334;28;20035;-46
2022/11/25 00:27:41;;;;;;;17.77;5.47;;;;;;;;;;4953018;29;20098;-51
2022/11/25 00:30:07;;;;;;;23.88;6.43;;;;;;;;;;4951988;29;20050;-45
2022/11/25 00:32:33;;;;;;;13.73;6.03;;;;;;;;;;4950488;29;20395;-45
2022/11/25 00:34:58;;;;;;;17.35;5.53;;;;;;;;;;4949842;29;20043;-43
2022/11/25 00:37:23;;;;;;;16.33;6.07;;;;;;;;;;4950859;29;20042;-49
2022/11/25 00:39:49;;;;;;;14.25;5.47;;;;;;;;;;4950286;28;20508;-44
2022/11/25 00:44:58;;;;;;;16.80;5.93;;;;;;;;;;4950511;28;20057;-48
2022/11/25 00:47:23;;;;;;;17.45;5.78;;;;;;;;;;4952203;29;20105;-48
2022/11/25 00:49:53;;;;;;;21.42;6.50;;;;;;;;;;4950798;28;20044;-46
2022/11/25 00:52:24;;;;;;;16.42;6.18;;;;;;;;;;4951079;29;20054;-45
2022/11/25 00:54:50;;;;;;;13.95;5.20;;;;;;;;;;4949374;29;20046;-47
2022/11/25 00:57:21;;;;;;;17.70;6.15;;;;;;;;;;4950471;28;20031;-46
2022/11/25 00:59:46;;;;;;;16.48;4.93;;;;;;;;;;4952232;29;20039;-43
2022/11/25 01:02:13;;;;;;;21.20;5.10;;;;;;;;;;4950444;29;20034;-47
2022/11/25 01:04:39;;;;;;;15.75;4.45;;;;;;;;;;4951016;29;20041;-47
2022/11/25 01:07:05;;;;;;;15.05;4.82;;;;;;;;;;4951278;29;20134;-44
2022/11/25 01:09:31;;;;;;;12.27;4.40;;;;;;;;;;4950775;28;20494;-44
2022/11/25 01:11:56;;;;;;;16.55;4.47;;;;;;;;;;4949240;28;20046;-47
2022/11/25 01:14:23;;;;;;;17.33;5.45;;;;;;;;;;4951400;29;20559;-45
2022/11/25 01:16:48;;;;;;;19.45;4.85;;;;;;;;;;4950591;29;20032;-44
2022/11/25 01:19:15;;;;;;;15.98;4.82;;;;;;;;;;4949994;29;20754;-44
2022/11/25 01:21:40;;;;;;;15.38;4.70;;;;;;;;;;4950748;29;20027;-46
2022/11/25 01:24:06;;;;;;;19.45;5.55;;;;;;;;;;4948485;29;20055;-44
2022/11/25 01:26:33;;;;;;;22.27;5.15;;;;;;;;;;4952035;29;20062;-44
2022/11/25 01:29:01;;;;;;;18.05;5.25;;;;;;;;;;4945539;29;20047;-46
2022/11/25 01:31:33;;;;;;;14.63;4.53;;;;;;;;;;4950673;29;20082;-47
2022/11/25 01:34:23;;;;;;;21.60;5.38;;;;;;;;;;4950599;29;20075;-48
2022/11/25 01:36:49;;;;;;;15.13;4.90;;;;;;;;;;4952987;28;20051;-44
2022/11/25 01:39:22;;;;;;;16.80;4.95;;;;;;;;;;4948783;29;20039;-47
2022/11/25 01:41:48;;;;;;;13.98;4.22;;;;;;;;;;4949347;29;20484;-44
2022/11/25 01:44:21;;;;;;;12.32;4.40;;;;;;;;;;4949956;29;20074;-44
2022/11/25 01:46:54;;;;;;;12.15;4.10;;;;;;;;;;4948862;29;20543;-46
2022/11/25 01:49:28;;;;;;;17.27;4.22;;;;;;;;;;4946395;29;20654;-44
2022/11/25 01:52:11;;;;;;;16.25;4.68;;;;;;;;;;4948990;28;20039;-44
2022/11/25 01:54:42;;;;;;;15.38;3.95;;;;;;;;;;4948617;29;20138;-46
2022/11/25 01:57:16;;;;;;;15.15;4.78;;;;;;;;;;4950395;29;20479;-45
2022/11/25 01:59:48;;;;;;;14.20;4.68;;;;;;;;;;4947504;28;20460;-50
2022/11/25 02:02:14;;;;;;;15.25;3.97;;;;;;;;;;4950126;28;20046;-44
2022/11/25 02:04:41;;;;;;;9.73;4.15;;;;;;;;;;4951467;28;20065;-44
2022/11/25 02:07:17;;;;;;;22.25;5.70;;;;;;;;;;4948640;29;20026;-48
2022/11/25 02:09:42;;;;;;;13.75;4.25;;;;;;;;;;4950539;29;20491;-46
2022/11/25 02:12:09;;;;;;;14.35;3.88;;;;;;;;;;4948466;29;20035;-47
2022/11/25 02:14:34;;;;;;;16.05;3.72;;;;;;;;;;4948796;29;20135;-45
2022/11/25 02:17:01;;;;;;;12.27;3.95;;;;;;;;;;4950559;29;20107;-44
2022/11/25 02:19:55;;;;;;;11.95;3.83;;;;;;;;;;4951639;29;20788;-44
2022/11/25 02:22:33;;;;;;;10.30;3.67;;;;;;;;;;4948908;28;20531;-43
2022/11/25 02:25:12;;;;;;;12.18;4.13;;;;;;;;;;4949113;28;20118;-46
2022/11/25 02:27:37;;;;;;;9.50;4.10;;;;;;;;;;4951411;29;20028;-46
2022/11/25 02:30:03;;;;;;;14.13;3.65;;;;;;;;;;4948880;29;20038;-44
2022/11/25 02:32:28;;;;;;;18.75;4.40;;;;;;;;;;4949308;29;20095;-44
2022/11/25 02:34:54;;;;;;;13.27;3.92;;;;;;;;;;4949524;29;20154;-45
2022/11/25 02:37:22;;;;;;;13.93;4.40;;;;;;;;;;4951368;29;20114;-45
2022/11/25 02:39:50;;;;;;;14.90;4.35;;;;;;;;;;4950021;29;20455;-47
2022/11/25 02:42:19;;;;;;;13.40;4.28;;;;;;;;;;4950107;28;20031;-47
2022/11/25 02:44:44;;;;;;;14.18;4.13;;;;;;;;;;4951054;28;20043;-44
2022/11/25 02:47:09;;;;;;;16.05;4.65;;;;;;;;;;4951082;28;20049;-47
2022/11/25 02:49:35;;;;;;;12.30;4.13;;;;;;;;;;4954105;29;20110;-44
2022/11/25 02:52:00;;;;;;;15.57;4.32;;;;;;;;;;4954026;29;20463;-44
2022/11/25 02:54:25;;;;;;;17.98;4.60;;;;;;;;;;4952452;28;20047;-43
2022/11/25 02:56:51;;;;;;;12.95;3.97;;;;;;;;;;4954368;29;20067;-45
2022/11/25 02:59:16;;;;;;;13.82;4.22;;;;;;;;;;4953325;29;20112;-44
2022/11/25 03:01:42;;;;;;;14.32;4.57;;;;;;;;;;4952336;29;20074;-44
2022/11/25 03:04:07;;;;;;;11.32;4.57;;;;;;;;;;4953054;28;20058;-47
2022/11/25 03:06:33;;;;;;;10.15;3.75;;;;;;;;;;4951430;29;20107;-47
2022/11/25 03:08:58;;;;;;;10.32;4.63;;;;;;;;;;4947986;28;20047;-45
2022/11/25 03:12:17;;;;;;;13.27;3.83;;;;;;;;;;4952031;28;20486;-44
2022/11/25 03:14:09;;;;;;;12.43;4.25;;;;;;;;;;4949805;29;20547;-46
2022/11/25 03:16:34;;;;;;;11.93;4.25;;;;;;;;;;4952538;28;20023;-49
2022/11/25 03:19:00;;;;;;;14.18;4.50;;;;;;;;;;4951031;29;20066;-44
2022/11/25 03:21:25;;;;;;;14.05;4.00;;;;;;;;;;4953432;29;20153;-45
2022/11/25 03:23:51;;;;;;;11.05;4.10;;;;;;;;;;4953632;29;20051;-44
2022/11/25 03:26:16;;;;;;;13.43;4.10;;;;;;;;;;4953782;29;20031;-45
2022/11/25 03:28:41;;;;;;;12.77;4.18;;;;;;;;;;4953057;29;20061;-44
2022/11/25 03:31:10;;;;;;;12.75;4.03;;;;;;;;;;4954716;29;20488;-44
2022/11/25 03:33:35;;;;;;;16.42;4.15;;;;;;;;;;4950999;29;20395;-47
2022/11/25 03:36:01;;;;;;;14.82;4.60;;;;;;;;;;4954151;29;20023;-46
2022/11/25 03:38:26;;;;;;;13.30;4.05;;;;;;;;;;4953365;29;20110;-44
2022/11/25 03:40:51;;;;;;;13.20;4.07;;;;;;;;;;4949405;28;20054;-47
2022/11/25 03:43:17;;;;;;;11.25;3.58;;;;;;;;;;4953888;28;20035;-45
2022/11/25 03:45:42;;;;;;;13.82;4.40;;;;;;;;;;4951579;28;20047;-47
2022/11/25 03:48:07;;;;;;;13.18;4.38;;;;;;;;;;4944804;29;20035;-47
2022/11/25 03:50:33;;;;;;;10.30;4.53;;;;;;;;;;4951348;29;20407;-45
2022/11/25 03:52:58;;;;;;;11.93;3.97;;;;;;;;;;4951388;28;20027;-47
2022/11/25 03:55:24;;;;;;;16.60;4.13;;;;;;;;;;4952066;28;20051;-50
2022/11/25 03:57:49;;;;;;;12.70;4.15;;;;;;;;;;4952523;29;20424;-47
2022/11/25 04:00:14;;;;;;;12.32;3.72;;;;;;;;;;4951561;28;20047;-45
2022/11/25 04:02:40;;;;;;;20.05;4.90;;;;;;;;;;4952793;29;20024;-46
2022/11/25 04:05:05;;;;;;;16.65;4.38;;;;;;;;;;4952251;28;20510;-44
2022/11/25 04:07:31;;;;;;;9.77;3.95;;;;;;;;;;4951980;29;20035;-45
2022/11/25 04:09:56;;;;;;;17.10;4.90;;;;;;;;;;4948236;29;20046;-44
2022/11/25 04:15:06;;;;;;;13.70;3.63;;;;;;;;;;4951064;28;20050;-44
2022/11/25 04:17:32;;;;;;;11.52;4.00;;;;;;;;;;4943980;29;20040;-43
2022/11/25 04:19:57;;;;;;;14.48;4.07;;;;;;;;;;4946508;28;20043;-46
2022/11/25 04:22:22;;;;;;;18.67;4.45;;;;;;;;;;4951394;29;20031;-46
2022/11/25 04:24:48;;;;;;;12.70;3.92;;;;;;;;;;4950230;29;20101;-46
2022/11/25 04:27:13;;;;;;;15.38;4.70;;;;;;;;;;4951033;29;20027;-47
2022/11/25 04:29:38;;;;;;;15.15;4.07;;;;;;;;;;4951474;29;20126;-47
2022/11/25 04:32:04;;;;;;;9.93;3.58;;;;;;;;;;4952450;29;20097;-47
2022/11/25 04:34:29;;;;;;;11.55;4.55;;;;;;;;;;4951611;28;20534;-47
2022/11/25 04:36:55;;;;;;;15.85;4.20;;;;;;;;;;4951137;29;20023;-46
2022/11/25 04:39:20;;;;;;;7.38;3.17;;;;;;;;;;4950204;28;20051;-47
2022/11/25 04:41:45;;;;;;;17.23;5.50;;;;;;;;;;4950929;29;20503;-44
2022/11/25 04:44:11;;;;;;;11.50;3.83;;;;;;;;;;4951107;28;20051;-46
2022/11/25 04:46:39;;;;;;;13.27;4.03;;;;;;;;;;4950365;29;20134;-44
2022/11/25 04:49:05;;;;;;;9.52;3.25;;;;;;;;;;4950643;29;20128;-43
2022/11/25 04:51:30;;;;;;;18.67;3.90;;;;;;;;;;4951013;29;20057;-44
2022/11/25 04:53:56;;;;;;;15.18;3.55;;;;;;;;;;4950499;28;20074;-43
2022/11/25 04:56:21;;;;;;;15.35;3.53;;;;;;;;;;4952033;29;20146;-45
2022/11/25 05:01:31;;;;;;;16.55;4.00;;;;;;;;;;4936033;29;20026;-45
2022/11/25 05:03:56;;;;;;;11.90;3.58;;;;;;;;;;4949518;29;20596;-44
2022/11/25 05:06:22;;;;;;;14.88;4.22;;;;;;;;;;4950018;28;20019;-44
2022/11/25 05:08:48;;;;;;;16.13;3.80;;;;;;;;;;4950499;29;20131;-46
2022/11/25 05:11:14;;;;;;;15.15;3.70;;;;;;;;;;4951374;29;20067;-44
2022/11/25 05:13:39;;;;;;;13.50;3.58;;;;;;;;;;4949461;28;20046;-47
2022/11/25 05:16:05;;;;;;;10.85;3.88;;;;;;;;;;4951550;28;20120;-45
2022/11/25 05:18:31;;;;;;;12.15;3.25;;;;;;;;;;4950626;29;20019;-44
2022/11/25 05:21:01;;;;;;;11.82;3.83;;;;;;;;;;4950353;28;20043;-45
2022/11/25 05:23:27;;;;;;;15.02;3.83;;;;;;;;;;4948915;29;20459;-47
2022/11/25 05:25:57;;;;;;;19.13;4.25;;;;;;;;;;4949500;29;20035;-46
2022/11/25 05:28:22;;;;;;;14.13;4.38;;;;;;;;;;4951054;29;20053;-45
2022/11/25 05:30:47;;;;;;;16.50;3.70;;;;;;;;;;4952541;29;20555;-47
2022/11/25 05:33:13;;;;;;;13.25;3.67;;;;;;;;;;4949730;29;20369;-47
2022/11/25 05:35:38;;;;;;;10.80;3.60;;;;;;;;;;4943822;28;20102;-43
2022/11/25 05:38:03;;;;;;;12.60;4.45;;;;;;;;;;4941024;28;20093;-44
2022/11/25 05:40:30;;;;;;;11.30;3.97;;;;;;;;;;4949801;29;20086;-43
2022/11/25 05:42:59;;;;;;;16.73;4.45;;;;;;;;;;4951609;29;20036;-45
2022/11/25 05:45:24;;;;;;;8.68;3.92;;;;;;;;;;4947844;28;20063;-45
2022/11/25 05:47:49;;;;;;;14.55;5.78;;;;;;;;;;4950529;29;20059;-46
2022/11/25 05:50:15;;;;;;;14.60;5.25;;;;;;;;;;4950197;28;20035;-44
2022/11/25 05:52:40;;;;;;;17.92;4.32;;;;;;;;;;4951140;29;20035;-44
2022/11/25 05:55:06;;;;;;;13.15;4.45;;;;;;;;;;4948655;29;20047;-45
2022/11/25 05:57:32;;;;;;;13.57;3.55;;;;;;;;;;4951577;29;20028;-47
2022/11/25 05:59:57;;;;;;;13.25;4.13;;;;;;;;;;4949842;29;20098;-47
2022/11/25 06:02:23;;;;;;;11.77;4.10;;;;;;;;;;4947753;28;20026;-44
2022/11/25 06:04:48;;;;;;;20.05;4.88;;;;;;;;;;4940885;28;20105;-43
2022/11/25 06:07:14;;;;;;;16.60;4.50;;;;;;;;;;4949550;28;20081;-46
2022/11/25 06:09:39;;;;;;;11.77;4.00;;;;;;;;;;4947023;28;20035;-45
2022/11/25 06:12:05;;;;;;;14.65;3.92;;;;;;;;;;4947215;28;20054;-47
2022/11/25 06:14:30;;;;;;;11.52;3.78;;;;;;;;;;4950885;28;20040;-44
2022/11/25 06:16:56;;;;;;;9.35;3.38;;;;;;;;;;4948613;28;20031;-47
2022/11/25 06:19:21;;;;;;;11.85;3.30;;;;;;;;;;4946980;28;20062;-46
2022/11/25 06:21:47;;;;;;;11.95;3.67;;;;;;;;;;4949606;28;20030;-46
2022/11/25 06:24:12;;;;;;;10.90;3.50;;;;;;;;;;4944971;28;20108;-44
2022/11/25 06:26:38;;;;;;;13.60;3.42;;;;;;;;;;4951884;28;20483;-47
2022/11/25 06:29:03;;;;;;;12.93;3.80;;;;;;;;;;4952867;28;20051;-47
2022/11/25 06:31:28;;;;;;;7.80;3.40;;;;;;;;;;4953521;28;20504;-44
2022/11/25 06:33:54;;;;;;;10.20;3.50;;;;;;;;;;4934053;28;20039;-44
2022/11/25 06:36:21;;;;;;;13.80;4.15;;;;;;;;;;4956054;28;20149;-44
2022/11/25 06:38:50;;;;;;;12.88;4.47;;;;;;;;;;4950855;28;20038;-45
2022/11/25 06:41:16;;;;;;;8.60;3.38;;;;;;;;;;4950355;28;20039;-47
2022/11/25 06:43:41;;;;;;;7.95;3.55;;;;;;;;;;4947852;28;20028;-44
2022/11/25 06:46:12;;;;;;;12.45;4.57;;;;;;;;;;4948585;28;20026;-45
2022/11/25 06:48:38;;;;;;;11.15;3.70;;;;;;;;;;4949326;28;20125;-46
2022/11/25 06:51:06;;;;;;;12.43;3.30;;;;;;;;;;4953263;28;20149;-47
2022/11/25 06:53:32;;;;;;;13.15;4.43;;;;;;;;;;4952729;28;20110;-48
2022/11/25 06:56:08;;;;;;;14.93;4.88;;;;;;;;;;4951185;28;20424;-45
2022/11/25 06:58:35;;;;;;;10.32;4.10;;;;;;;;;;4952003;28;20531;-44
2022/11/25 07:01:27;;;;;;;10.88;4.82;;;;;;;;;;4952732;29;20114;-44
2022/11/25 07:03:58;;;;;;;10.05;3.40;;;;;;;;;;4949168;28;20035;-46
2022/11/25 07:06:24;;;;;;;8.23;4.13;;;;;;;;;;4950617;29;20031;-47
2022/11/25 07:08:50;;;;;;;5.47;2.83;;;;;;;;;;4952151;29;20027;-45
2022/11/25 07:11:24;;;;;;;13.00;3.92;;;;;;;;;;4953106;28;20066;-48
2022/11/25 07:13:53;;;;;;;9.82;3.72;;;;;;;;;;4948962;29;20050;-50
2022/11/25 07:16:18;;;;;;;9.00;3.13;;;;;;;;;;4952468;28;20523;-43
2022/11/25 07:18:43;;;;;;;9.35;4.03;;;;;;;;;;4951572;29;20031;-44
2022/11/25 07:21:12;;;;;;;8.02;3.67;;;;;;;;;;4952968;29;20067;-44
2022/11/25 07:23:39;;;;;;;12.45;4.38;;;;;;;;;;4952763;29;20388;-43
2022/11/25 07:26:13;;;;;;;15.00;4.80;;;;;;;;;;4952086;29;22008;-44
2022/11/25 07:28:39;;;;;;;9.70;4.53;;;;;;;;;;4949246;29;20027;-44
2022/11/25 07:31:07;;;;;;;16.42;4.20;;;;;;;;;;4948638;28;20043;-44
2022/11/25 07:33:32;;;;;;;10.68;4.70;;;;;;;;;;4952043;28;20031;-45
2022/11/25 07:36:06;;;;;;;7.22;3.80;;;;;;;;;;4953042;29;20026;-51
2022/11/25 07:38:33;;;;;;;8.65;3.58;;;;;;;;;;4952818;29;20119;-43
2022/11/25 07:41:11;;;;;;;8.38;3.47;;;;;;;;;;4951190;29;20138;-44
2022/11/25 07:43:37;;;;;;;7.18;3.55;;;;;;;;;;4950460;28;20031;-44
2022/11/25 07:46:12;;;;;;;10.10;4.72;;;;;;;;;;4950750;28;20019;-46
2022/11/25 07:48:38;;;;;;;11.70;3.63;;;;;;;;;;4947859;28;20032;-43
2022/11/25 07:51:04;;;;;;;10.02;4.15;;;;;;;;;;4950517;29;20030;-45
2022/11/25 07:53:29;;;;;;;13.15;4.47;;;;;;;;;;4952899;29;20036;-47
2022/11/25 07:55:55;;;;;;;70.40;28.98;;;;;;;;;;4952104;29;20054;-44
2022/11/25 07:58:20;;;;;;;78.70;33.00;;;;;;;;;;4951303;29;20070;-44
2022/11/25 08:00:45;;;;;;;25.83;11.13;;;;;;;;;;4950968;29;20508;-51
2022/11/25 08:03:11;;;;;;;25.38;9.15;;;;;;;;;;4945392;29;20027;-43
2022/11/25 08:05:36;;;;;;;10.25;5.07;;;;;;;;;;4951574;29;20039;-44
2022/11/25 08:08:02;;;;;;;9.10;3.47;;;;;;;;;;4947367;29;20043;-46
2022/11/25 08:10:27;;;;;;;13.45;4.35;;;;;;;;;;4951546;29;20047;-45
2022/11/25 08:12:52;;;;;;;17.05;5.32;;;;;;;;;;4951582;28;20028;-46
2022/11/25 08:15:18;;;;;;;19.65;6.32;;;;;;;;;;4950290;29;20521;-44
2022/11/25 08:17:43;;;;;;;28.10;6.78;;;;;;;;;;4952377;29;20110;-44
2022/11/25 08:20:09;;;;;;;14.02;5.28;;;;;;;;;;4949346;29;20050;-47
2022/11/25 08:22:34;;;;;;;24.92;6.78;;;;;;;;;;4951725;29;20489;-47
2022/11/25 08:25:00;;;;;;;16.63;5.15;;;;;;;;;;4950114;29;20040;-47
2022/11/25 08:27:25;;;;;;;29.10;11.48;;;;;;;;;;4952024;29;20035;-46
2022/11/25 08:29:50;;;;;;;15.98;6.55;;;;;;;;;;4947991;28;20035;-47
2022/11/25 08:32:16;;;;;;;12.70;4.22;;;;;;;;;;4950393;29;20039;-44
2022/11/25 08:34:41;;;;;;;15.95;4.95;;;;;;;;;;4951132;28;20085;-44
2022/11/25 08:37:07;;;;;;;15.23;6.50;;;;;;;;;;4950013;28;20031;-50
2022/11/25 08:39:33;;;;;;;17.45;6.38;;;;;;;;;;4949665;29;20043;-47
2022/11/25 08:42:03;;;;;;;18.08;4.60;;;;;;;;;;4951420;28;20033;-49
2022/11/25 08:44:29;;;;;;;15.15;4.40;;;;;;;;;;4949299;28;20040;-47
2022/11/25 08:46:54;;;;;;;10.82;4.78;;;;;;;;;;4950698;29;20031;-45
2022/11/25 08:49:20;;;;;;;15.90;5.50;;;;;;;;;;4951227;29;20399;-44
2022/11/25 08:51:46;;;;;;;22.70;5.97;;;;;;;;;;4949404;29;20034;-49
2022/11/25 08:54:11;;;;;;;25.20;6.80;;;;;;;;;;4950338;29;20043;-43
2022/11/25 08:56:37;;;;;;;14.80;6.40;;;;;;;;;;4950962;29;20523;-47
2022/11/25 08:59:03;;;;;;;13.27;4.82;;;;;;;;;;4947455;29;20131;-44
2022/11/25 09:01:28;;;;;;;12.18;5.13;;;;;;;;;;4950674;29;20468;-44
2022/11/25 09:03:55;;;;;;;11.32;4.45;;;;;;;;;;4950659;28;20054;-44
2022/11/25 09:06:22;;;;;;;11.23;4.80;;;;;;;;;;4950758;29;20598;-46
2022/11/25 09:08:48;;;;;;;10.43;5.00;;;;;;;;;;4949219;28;20035;-44
2022/11/25 09:11:14;;;;;;;15.88;6.10;;;;;;;;;;4950560;29;20054;-47
2022/11/25 09:13:39;;;;;;;22.42;4.88;;;;;;;;;;4949749;28;20031;-44
2022/11/25 09:16:06;;;;;;;15.75;5.75;;;;;;;;;;4951022;29;20106;-47
2022/11/25 09:18:31;;;;;;;17.58;6.45;;;;;;;;;;4944140;28;20062;-44
2022/11/25 09:20:57;;;;;;;20.05;5.70;;;;;;;;;;4950368;29;20051;-47
2022/11/25 09:23:24;;;;;;;16.27;5.18;;;;;;;;;;4949973;29;20508;-44
2022/11/25 09:25:57;;;;;;;19.60;5.47;;;;;;;;;;4950227;29;20075;-46
2022/11/25 09:28:23;;;;;;;14.73;5.88;;;;;;;;;;4948806;28;20042;-44
2022/11/25 09:30:49;;;;;;;15.70;5.30;;;;;;;;;;4947903;29;20047;-44
2022/11/25 09:33:17;;;;;;;11.98;5.22;;;;;;;;;;4951785;28;20550;-46
2022/11/25 09:35:43;;;;;;;14.10;6.10;;;;;;;;;;4949904;29;20058;-44
2022/11/25 09:38:09;;;;;;;13.70;5.43;;;;;;;;;;4947612;29;20023;-47
2022/11/25 09:40:57;;;;;;;15.27;5.65;;;;;;;;;;4948082;29;20051;-47
2022/11/25 09:46:47;;;;;;;10.35;5.07;;;;;;;;;;4948204;29;20043;-45
2022/11/25 09:49:37;;;;;;;13.05;5.47;;;;;;;;;;4950221;29;20516;-47
2022/11/25 09:52:22;;;;;;;19.48;5.25;;;;;;;;;;4950570;29;20039;-49
2022/11/25 09:55:06;;;;;;;14.00;6.00;;;;;;;;;;4952929;29;20048;-53
2022/11/25 09:58:02;;;;;;;13.70;5.07;;;;;;;;;;4952162;28;20503;-46
2022/11/25 10:00:39;;;;;;;23.42;5.43;;;;;;;;;;4951842;28;20051;-45
2022/11/25 10:03:05;;;;;;;19.98;5.93;;;;;;;;;;4953645;29;20035;-46
2022/11/25 10:05:36;;;;;;;13.05;5.63;;;;;;;;;;4952247;28;20070;-47
2022/11/25 10:08:13;;;;;;;11.80;3.88;;;;;;;;;;4954662;29;20046;-44
2022/11/25 10:10:46;;;;;;;11.82;3.38;;;;;;;;;;4953499;28;20043;-48
2022/11/25 10:13:26;;;;;;;10.55;3.30;;;;;;;;;;4952312;29;20027;-46
2022/11/25 10:15:54;;;;;;;4.82;3.03;;;;;;;;;;4952573;29;20495;-50
2022/11/25 10:18:42;;;;;;;9.60;2.97;;;;;;;;;;4950095;29;20035;-44
2022/11/25 10:21:10;;;;;;;6.30;3.38;;;;;;;;;;4953676;29;20039;-47
2022/11/25 10:23:38;;;;;;;9.57;3.03;;;;;;;;;;4953321;29;20107;-44
2022/11/25 10:26:16;;;;;;;13.77;2.92;;;;;;;;;;4952263;28;20392;-47
2022/11/25 10:29:13;;;;;;;5.60;2.63;;;;;;;;;;4949858;29;20031;-47
2022/11/25 10:31:41;;;;;;;7.53;2.65;;;;;;;;;;4911402;29;20048;-45
2022/11/25 10:34:31;;;;;;;6.93;2.33;;;;;;;;;;4913060;29;20044;-45
2022/11/25 10:36:59;;;;;;;5.18;2.38;;;;;;;;;;4912519;29;20456;-46
2022/11/25 10:39:30;;;;;;;6.40;2.63;;;;;;;;;;4909972;29;20036;-44
2022/11/25 10:41:56;;;;;;;6.68;2.83;;;;;;;;;;4911806;29;20083;-46
2022/11/25 10:44:24;;;;;;;7.88;2.70;;;;;;;;;;4912698;29;20079;-45
2022/11/25 10:47:01;;;;;;;7.00;2.45;;;;;;;;;;4913114;29;20032;-48
2022/11/25 10:49:58;;;;;;;7.40;3.28;;;;;;;;;;4912169;29;20048;-48
2022/11/25 10:52:29;;;;;;;6.13;2.60;;;;;;;;;;4836709;29;20183;-46
2022/11/25 10:55:15;;;;;;;9.10;2.30;;;;;;;;;;4837570;29;20042;-46
2022/11/25 10:57:42;;;;;;;8.68;2.53;;;;;;;;;;4837628;29;20045;-45
2022/11/25 11:00:40;;;;;;;9.55;2.53;;;;;;;;;;4838405;29;20095;-49
2022/11/25 11:03:23;;;;;;;11.20;2.80;;;;;;;;;;4836869;29;20144;-45
2022/11/25 11:05:50;;;;;;;6.68;2.78;;;;;;;;;;4837565;29;20443;-44
2022/11/25 11:08:22;;;;;;;8.13;2.47;;;;;;;;;;4855264;29;20060;-50
2022/11/25 11:11:17;;;;;;;9.30;2.83;;;;;;;;;;4871279;29;20630;-45
2022/11/25 11:13:44;;;;;;;7.18;2.17;;;;;;;;;;4876676;29;20091;-44
2022/11/25 11:16:34;;;;;;;8.18;2.85;;;;;;;;;;4875791;29;20069;-46
2022/11/25 11:19:00;;;;;;;7.18;2.10;;;;;;;;;;4873661;29;20171;-48
2022/11/25 11:21:28;;;;;;;4.38;1.98;;;;;;;;;;4874103;29;20200;-49
2022/11/25 11:23:55;;;;;;;6.65;2.53;;;;;;;;;;4874701;29;20056;-47
2022/11/25 11:26:31;;;;;;;6.47;2.20;;;;;;;;;;4875481;29;20138;-46
2022/11/25 11:29:14;;;;;;;7.78;2.22;;;;;;;;;;4900103;29;20130;-46
2022/11/25 11:31:48;;;;;;;9.23;2.67;;;;;;;;;;4952353;29;20047;-46
2022/11/25 11:34:13;;;;;;;7.65;2.72;;;;;;;;;;4953990;29;20571;-47
2022/11/25 11:36:38;;;;;;;8.50;2.55;;;;;;;;;;4952413;29;20101;-48
2022/11/25 11:39:41;;;;;;;8.25;3.10;;;;;;;;;;4950487;29;20118;-49
2022/11/25 11:42:45;;;;;;;8.63;2.70;;;;;;;;;;4951283;29;20547;-45
2022/11/25 11:45:22;;;;;;;14.35;2.92;;;;;;;;;;4944959;29;20102;-47
2022/11/25 11:48:06;;;;;;;12.80;3.20;;;;;;;;;;4949706;29;20035;-45
2022/11/25 11:50:57;;;;;;;5.55;2.72;;;;;;;;;;4942385;29;20130;-44
2022/11/25 11:53:56;;;;;;;7.45;2.55;;;;;;;;;;4946374;29;20173;-44
2022/11/25 11:56:38;;;;;;;6.80;3.20;;;;;;;;;;4949517;28;20039;-46
2022/11/25 11:59:06;;;;;;;;;;;;;;;;;;4945378;29;20512;-47
2022/11/25 12:02:05;;;;;;;11.48;3.00;;;;;;;;;;4947679;29;19929;-47
2022/11/25 12:04:51;;;;;;;7.65;3.25;;;;;;;;;;4943810;29;20404;-46
2022/11/25 12:07:31;;;;;;;5.78;3.13;;;;;;;;;;4943476;29;20047;-47
2022/11/25 12:10:05;;;;;;;6.60;3.20;;;;;;;;;;4945730;29;20450;-46
2022/11/25 12:12:39;;;;;;;6.75;3.40;;;;;;;;;;4947918;29;20059;-44
2022/11/25 12:15:44;;;;;;;9.35;3.58;;;;;;;;;;4948046;29;20035;-50
2022/11/25 12:18:23;;;;;;;4.05;2.83;;;;;;;;;;4948415;29;20106;-48
2022/11/25 12:21:00;;;;;;;6.80;3.25;;;;;;;;;;4947572;29;20051;-49
2022/11/25 12:24:02;;;;;;;6.13;3.22;;;;;;;;;;4951534;29;20023;-49
2022/11/25 12:26:37;;;;;;;10.23;3.33;;;;;;;;;;4951760;29;20497;-45
2022/11/25 12:29:09;;;;;;;9.23;3.30;;;;;;;;;;4950326;28;20023;-45
2022/11/25 12:31:48;;;;;;;5.30;2.75;;;;;;;;;;4951123;29;20547;-45
2022/11/25 12:34:26;;;;;;;5.50;2.67;;;;;;;;;;4950680;29;20051;-48
2022/11/25 12:36:55;;;;;;;5.25;2.30;;;;;;;;;;4948489;29;20031;-47
2022/11/25 12:39:30;;;;;;;3.35;2.25;;;;;;;;;;4949490;29;20062;-45
2022/11/25 12:42:00;;;;;;;5.95;2.65;;;;;;;;;;4949867;29;20094;-45
2022/11/25 12:44:50;;;;;;;4.25;2.92;;;;;;;;;;4949528;28;20492;-48
2022/11/25 12:47:15;;;;;;;4.95;2.80;;;;;;;;;;4950748;29;20038;-44
2022/11/25 12:49:44;;;;;;;6.63;3.03;;;;;;;;;;4948036;28;20036;-45
2022/11/25 12:52:12;;;;;;;6.57;2.85;;;;;;;;;;4948225;28;20031;-45
2022/11/25 12:55:02;;;;;;;9.30;3.20;;;;;;;;;;4951465;28;20062;-49
2022/11/25 12:57:45;;;;;;;8.63;3.13;;;;;;;;;;4943662;29;20106;-45
2022/11/25 13:00:46;;;;;;;4.72;2.30;;;;;;;;;;4951821;28;20510;-45
2022/11/25 13:03:39;;;;;;;8.20;2.90;;;;;;;;;;4946662;29;20047;-47
2022/11/25 13:06:23;;;;;;;8.77;2.58;;;;;;;;;;4947631;28;20308;-44
2022/11/25 13:09:03;;;;;;;5.10;2.40;;;;;;;;;;4950871;28;20121;-45
2022/11/25 13:11:32;;;;;;;9.32;2.13;;;;;;;;;;4950884;29;20035;-45
2022/11/25 13:14:34;;;;;;;4.80;2.25;;;;;;;;;;4948757;29;20035;-48
2022/11/25 13:17:00;;;;;;;5.72;2.05;;;;;;;;;;4946855;29;20547;-47
2022/11/25 13:19:25;;;;;;;4.85;2.50;;;;;;;;;;4951053;29;20039;-44
2022/11/25 13:21:59;;;;;;;7.82;2.50;;;;;;;;;;4951961;29;20035;-44
2022/11/25 13:24:47;;;;;;;7.88;3.00;;;;;;;;;;4950756;28;20070;-45
2022/11/25 13:27:51;;;;;;;7.47;2.78;;;;;;;;;;4949816;28;20125;-48
2022/11/25 13:30:50;;;;;;;4.43;2.42;;;;;;;;;;4949025;29;20106;-47
2022/11/25 13:33:16;;;;;;;4.80;2.33;;;;;;;;;;4967994;28;20097;-46
2022/11/25 13:35:52;;;;;;;4.05;1.90;;;;;;;;;;4967684;28;20066;-50
2022/11/25 13:38:34;;;;;;;4.28;2.35;;;;;;;;;;4965695;28;20039;-48
2022/11/25 13:41:19;;;;;;;5.22;2.20;;;;;;;;;;4965892;28;20439;-44
2022/11/25 13:43:50;;;;;;;3.53;2.10;;;;;;;;;;4967361;28;20051;-45
2022/11/25 13:46:40;;;;;;;3.90;2.20;;;;;;;;;;4968000;28;20487;-46
2022/11/25 13:49:19;;;;;;;5.32;1.98;;;;;;;;;;4960857;28;20038;-46
2022/11/25 13:52:11;;;;;;;5.32;2.17;;;;;;;;;;4964066;28;20039;-48
2022/11/25 13:54:48;;;;;;;;;;;;;;;;;;4948759;29;20175;-46
2022/11/25 13:57:21;;;;;;;4.15;1.80;;;;;;;;;;4947182;29;19929;-44
2022/11/25 13:59:53;;;;;;;5.40;2.30;;;;;;;;;;4947299;29;20200;-44
2022/11/25 14:02:27;;;;;;;9.23;2.50;;;;;;;;;;4946659;28;20043;-44
2022/11/25 14:05:02;;;;;;;4.18;2.20;;;;;;;;;;4944783;28;20484;-45
2022/11/25 14:07:52;;;;;;;4.13;2.25;;;;;;;;;;4950283;29;20069;-45
2022/11/25 14:10:41;;;;;;;5.13;2.00;;;;;;;;;;4888979;29;20029;-45
2022/11/25 14:13:15;;;;;;;6.78;4.18;;;;;;;;;;4891935;29;20045;-46
2022/11/25 14:15:56;;;;;;;6.20;3.67;;;;;;;;;;4889183;29;20421;-44
2022/11/25 14:18:46;;;;;;;6.00;4.13;;;;;;;;;;4889826;29;20042;-44
2022/11/25 14:21:29;;;;;;;4.68;3.05;;;;;;;;;;4891179;29;20465;-47
2022/11/25 14:24:34;;;;;;;5.53;1.95;;;;;;;;;;4892083;29;20123;-48
2022/11/25 14:27:00;;;;;;;4.93;2.50;;;;;;;;;;4890683;29;20039;-44
2022/11/25 14:29:35;;;;;;;6.78;2.60;;;;;;;;;;4890580;29;20064;-44
2022/11/25 14:32:17;;;;;;;3.15;1.67;;;;;;;;;;4927949;29;20074;-47
2022/11/25 14:34:47;;;;;;;6.07;2.08;;;;;;;;;;4950326;29;20043;-47
2022/11/25 14:37:26;;;;;;;6.00;2.75;;;;;;;;;;4950139;28;20160;-47
2022/11/25 14:39:57;;;;;;;5.00;2.20;;;;;;;;;;4941192;28;20043;-44
2022/11/25 14:42:26;;;;;;;6.93;3.17;;;;;;;;;;4952814;29;20427;-45
2022/11/25 14:44:58;;;;;;;6.65;2.88;;;;;;;;;;4949586;29;20044;-45
2022/11/25 14:47:29;;;;;;;6.13;2.15;;;;;;;;;;4952811;29;20031;-45
2022/11/25 14:49:59;;;;;;;3.85;2.95;;;;;;;;;;4950883;28;20043;-46
2022/11/25 14:52:31;;;;;;;9.23;1.98;;;;;;;;;;4952058;29;20027;-44
2022/11/25 14:54:59;;;;;;;5.32;3.30;;;;;;;;;;4951947;29;20531;-45
2022/11/25 14:57:28;;;;;;;7.13;3.85;;;;;;;;;;4932347;29;20388;-46
2022/11/25 14:59:56;;;;;;;5.60;3.15;;;;;;;;;;4953891;28;20039;-48
2022/11/25 15:02:28;;;;;;;5.22;3.20;;;;;;;;;;4949150;29;20039;-49
2022/11/25 15:05:09;;;;;;;4.10;2.70;;;;;;;;;;4951512;28;20053;-46
2022/11/25 15:07:34;;;;;;;5.88;3.17;;;;;;;;;;4952922;29;20067;-44
2022/11/25 15:10:00;;;;;;;6.30;2.60;;;;;;;;;;4953082;29;20126;-45